Time;durP1;ratioP1;P1;durP2;ratioP2;P2;SDS_P1;SDS_P2;PMS_P1;PMS_P2;Temp;Humidity;BMP_temperature;BMP_pressure;BME280_temperature;BME280_humidity;BME280_pressure;Samples;Min_cycle;Max_cycle;Signal;HPM_P1;HPM_P2
2023/05/16 00:00:09;;;;;;;9.60;8.23;;;;;20.90;100505.00;;;;2060674;28;20214;-51
2023/05/16 00:01:11;;;;;;;8.53;7.73;;;;;20.90;100503.00;;;;2061259;28;20303;-51
2023/05/16 00:02:12;;;;;;;8.00;7.28;;;;;20.90;100496.00;;;;2072045;28;20466;-50
2023/05/16 00:03:13;;;;;;;7.97;7.17;;;;;20.90;100492.00;;;;2089367;28;20204;-51
2023/05/16 00:04:13;;;;;;;8.50;7.35;;;;;20.90;100496.00;;;;2081746;28;20263;-52
2023/05/16 00:05:14;;;;;;;9.43;8.10;;;;;20.90;100506.00;;;;2084945;28;20689;-51
2023/05/16 00:06:14;;;;;;;8.87;7.50;;;;;20.90;100513.00;;;;2077373;28;20317;-50
2023/05/16 00:07:15;;;;;;;8.60;7.70;;;;;20.90;100510.00;;;;2068086;28;20250;-51
2023/05/16 00:08:15;;;;;;;8.23;6.87;;;;;20.90;100509.00;;;;2069303;28;20222;-51
2023/05/16 00:09:16;;;;;;;7.40;6.70;;;;;20.90;100503.00;;;;2076524;28;20226;-50
2023/05/16 00:10:17;;;;;;;8.03;7.30;;;;;20.90;100507.00;;;;2077248;28;20221;-50
2023/05/16 00:11:17;;;;;;;8.00;7.00;;;;;20.90;100499.00;;;;2069992;28;20623;-51
2023/05/16 00:12:18;;;;;;;6.50;5.90;;;;;20.90;100507.00;;;;2068412;28;20282;-51
2023/05/16 00:13:23;;;;;;;7.55;6.80;;;;;20.90;100511.00;;;;2084064;28;20220;-51
2023/05/16 00:14:25;;;;;;;8.30;7.50;;;;;20.90;100506.00;;;;2077256;28;20229;-51
2023/05/16 00:15:25;;;;;;;7.13;6.43;;;;;20.80;100515.00;;;;2080498;28;20900;-51
2023/05/16 00:16:28;;;;;;;6.60;6.00;;;;;20.90;100509.00;;;;2086335;28;20227;-50
2023/05/16 00:17:29;;;;;;;7.30;6.10;;;;;20.90;100503.00;;;;2072827;28;20827;-51
2023/05/16 00:18:29;;;;;;;7.23;6.47;;;;;20.90;100507.00;;;;2086501;28;20219;-52
2023/05/16 00:19:30;;;;;;;6.87;6.23;;;;;20.90;100510.00;;;;2088213;28;20213;-52
2023/05/16 00:20:30;;;;;;;7.03;6.37;;;;;20.80;100509.00;;;;2079076;28;20233;-52
2023/05/16 00:21:31;;;;;;;7.67;6.97;;;;;20.90;100511.00;;;;2085590;28;20213;-50
2023/05/16 00:22:31;;;;;;;8.30;6.80;;;;;20.80;100516.00;;;;2073450;28;20244;-51
2023/05/16 00:23:31;;;;;;;7.23;6.50;;;;;20.80;100515.00;;;;2091121;28;20246;-51
2023/05/16 00:24:32;;;;;;;7.20;6.30;;;;;20.80;100510.00;;;;2087714;28;20271;-51
2023/05/16 00:25:33;;;;;;;7.10;6.40;;;;;20.80;100516.00;;;;2078783;28;20217;-50
2023/05/16 00:26:33;;;;;;;6.63;6.00;;;;;20.80;100520.00;;;;2085792;28;20708;-50
2023/05/16 00:27:34;;;;;;;6.57;5.97;;;;;20.80;100525.00;;;;2075926;28;20724;-49
2023/05/16 00:28:34;;;;;;;7.17;6.47;;;;;20.80;100519.00;;;;2090108;28;20666;-50
2023/05/16 00:29:35;;;;;;;7.00;6.30;;;;;20.90;100518.00;;;;2083979;28;20463;-50
2023/05/16 00:30:35;;;;;;;6.80;6.20;;;;;20.80;100547.00;;;;2079462;28;20704;-50
2023/05/16 00:31:36;;;;;;;7.20;6.50;;;;;20.80;100520.00;;;;2084541;28;20788;-50
2023/05/16 00:32:36;;;;;;;7.27;6.53;;;;;20.80;100519.00;;;;2070675;28;20209;-50
2023/05/16 00:33:36;;;;;;;6.13;5.57;;;;;20.80;100524.00;;;;2087036;28;20221;-50
2023/05/16 00:34:36;;;;;;;6.50;5.90;;;;;20.80;100523.00;;;;2074653;28;20237;-50
2023/05/16 00:35:37;;;;;;;6.23;5.63;;;;;20.80;100530.00;;;;2073921;28;20276;-50
2023/05/16 00:36:37;;;;;;;6.07;5.57;;;;;20.80;100520.00;;;;2080740;28;20213;-50
2023/05/16 00:37:38;;;;;;;6.20;5.60;;;;;20.80;100524.00;;;;2073493;28;20278;-50
2023/05/16 00:38:38;;;;;;;7.00;6.30;;;;;20.80;100524.00;;;;2085470;28;20283;-50
2023/05/16 00:39:39;;;;;;;6.50;5.90;;;;;20.90;100528.00;;;;2076083;28;20626;-50
2023/05/16 00:40:39;;;;;;;6.00;5.40;;;;;20.80;100523.00;;;;2071589;28;20989;-50
2023/05/16 00:41:40;;;;;;;6.23;5.63;;;;;20.80;100524.00;;;;2074329;28;20209;-50
2023/05/16 00:42:40;;;;;;;6.23;5.63;;;;;20.80;100516.00;;;;2065844;28;20762;-50
2023/05/16 00:43:40;;;;;;;6.40;5.70;;;;;20.80;100521.00;;;;2084565;28;20276;-50
2023/05/16 00:44:41;;;;;;;6.50;5.90;;;;;20.80;100523.00;;;;2079627;28;20216;-50
2023/05/16 00:45:41;;;;;;;5.40;4.90;;;;;20.80;100527.00;;;;2083667;28;20201;-50
2023/05/16 00:46:42;;;;;;;5.93;5.33;;;;;20.80;100531.00;;;;2077053;28;20209;-51
2023/05/16 00:47:42;;;;;;;7.40;5.30;;;;;20.80;100526.00;;;;2078943;28;21545;-49
2023/05/16 00:48:42;;;;;;;6.00;5.50;;;;;20.80;100529.00;;;;2082869;28;20205;-49
2023/05/16 00:49:43;;;;;;;5.50;5.00;;;;;20.80;100525.00;;;;2075919;28;20290;-49
2023/05/16 00:50:44;;;;;;;5.30;4.80;;;;;20.80;100526.00;;;;2078842;28;20220;-50
2023/05/16 00:51:44;;;;;;;5.60;5.10;;;;;20.80;100525.00;;;;2076613;28;20488;-50
2023/05/16 00:52:44;;;;;;;6.13;5.57;;;;;20.80;100530.00;;;;2063318;28;20233;-49
2023/05/16 00:53:45;;;;;;;6.00;5.40;;;;;20.80;100528.00;;;;2074184;28;20292;-49
2023/05/16 00:54:45;;;;;;;5.53;5.03;;;;;20.80;100530.00;;;;2080764;28;20248;-49
2023/05/16 00:55:46;;;;;;;5.73;5.23;;;;;20.80;100534.00;;;;2082687;28;20232;-50
2023/05/16 00:56:46;;;;;;;5.17;4.67;;;;;20.80;100537.00;;;;2080998;28;20217;-49
2023/05/16 00:57:46;;;;;;;5.30;4.80;;;;;20.80;100533.00;;;;2065356;28;20213;-49
2023/05/16 00:58:47;;;;;;;6.33;4.53;;;;;20.50;100534.00;;;;2071606;28;20218;-50
2023/05/16 00:59:47;;;;;;;5.20;4.80;;;;;20.80;100536.00;;;;2079508;28;20223;-49
2023/05/16 01:00:47;;;;;;;5.33;4.83;;;;;20.80;100533.00;;;;2079969;28;20296;-50
2023/05/16 01:01:48;;;;;;;5.17;4.70;;;;;20.80;100532.00;;;;2080520;28;20220;-49
2023/05/16 01:02:52;;;;;;;4.93;4.43;;;;;20.80;100532.00;;;;2051512;28;20304;-50
2023/05/16 01:03:52;;;;;;;4.70;4.30;;;;;20.80;100540.00;;;;2066564;28;20464;-50
2023/05/16 01:04:52;;;;;;;5.63;5.13;;;;;20.80;100522.00;;;;2076944;28;20306;-50
2023/05/16 01:05:53;;;;;;;5.13;4.53;;;;;20.80;100527.00;;;;2080421;28;20225;-50
2023/05/16 01:06:54;;;;;;;4.57;4.17;;;;;20.80;100534.00;;;;2073245;28;20213;-50
2023/05/16 01:07:55;;;;;;;4.78;4.30;;;;;20.80;100530.00;;;;2084167;28;20217;-53
2023/05/16 01:08:55;;;;;;;4.63;4.23;;;;;20.80;100530.00;;;;2077207;28;20252;-51
2023/05/16 01:09:56;;;;;;;5.40;4.10;;;;;20.80;100539.00;;;;2079827;28;20245;-49
2023/05/16 01:11:15;;;;;;;5.20;4.00;;;;;20.80;100532.00;;;;2077201;28;20218;-50
2023/05/16 01:12:28;;;;;;;4.75;4.30;;;;;20.80;100529.00;;;;2066566;28;20221;-49
2023/05/16 01:14:16;;;;;;;4.85;4.20;;;;;20.80;100539.00;;;;2064984;28;20618;-50
2023/05/16 01:15:30;;;;;;;4.43;4.03;;;;;20.80;100534.00;;;;2068374;28;20288;-50
2023/05/16 01:16:38;;;;;;;4.60;3.95;;;;;20.80;100549.00;;;;2064524;28;20213;-50
2023/05/16 01:17:52;;;;;;;4.78;4.13;;;;;20.80;100549.00;;;;2072295;28;20215;-50
2023/05/16 01:19:15;;;;;;;3.88;3.47;;;;;20.80;100546.00;;;;2073364;28;20248;-49
2023/05/16 01:20:20;;;;;;;4.38;3.72;;;;;20.80;100552.00;;;;2071283;28;20278;-50
2023/05/16 01:21:39;;;;;;;4.68;3.75;;;;;20.80;100532.00;;;;2069151;28;20228;-50
2023/05/16 01:22:51;;;;;;;3.97;3.58;;;;;20.80;100538.00;;;;2063941;28;20232;-51
2023/05/16 01:23:59;;;;;;;4.82;3.80;;;;;20.80;100558.00;;;;2076917;28;20603;-50
2023/05/16 01:25:11;;;;;;;5.28;3.70;;;;;20.80;100551.00;;;;2075958;28;20690;-50
2023/05/16 01:26:17;;;;;;;4.60;4.20;;;;;20.80;100554.00;;;;2070855;28;20214;-50
2023/05/16 01:27:17;;;;;;;4.22;3.70;;;;;20.80;100549.00;;;;2064658;28;20218;-50
2023/05/16 01:28:18;;;;;;;3.77;3.47;;;;;20.80;100560.00;;;;2073498;28;20973;-49
2023/05/16 01:29:18;;;;;;;3.47;3.17;;;;;20.80;100550.00;;;;2079694;28;20682;-50
2023/05/16 01:30:18;;;;;;;3.97;3.50;;;;;20.80;100565.00;;;;2076244;28;20740;-50
2023/05/16 01:31:22;;;;;;;3.63;3.27;;;;;20.80;100559.00;;;;2076958;28;20217;-49
2023/05/16 01:32:22;;;;;;;3.50;3.20;;;;;20.80;100558.00;;;;2071268;28;20228;-49
2023/05/16 01:33:23;;;;;;;4.23;3.83;;;;;20.80;100566.00;;;;2088466;28;20756;-49
2023/05/16 01:34:23;;;;;;;4.67;4.27;;;;;20.80;100560.00;;;;2085404;28;20352;-49
2023/05/16 01:35:24;;;;;;;3.70;3.40;;;;;20.50;100566.00;;;;2077183;28;20271;-50
2023/05/16 01:36:36;;;;;;;3.37;3.00;;;;;20.80;100566.00;;;;2071249;28;20225;-49
2023/05/16 01:37:49;;;;;;;3.95;3.55;;;;;20.80;100565.00;;;;2065641;28;20300;-50
2023/05/16 01:39:06;;;;;;;4.57;3.53;;;;;20.80;100553.00;;;;2065347;28;20220;-50
2023/05/16 01:40:12;;;;;;;4.05;3.65;;;;;20.80;100581.00;;;;2068056;28;20218;-50
2023/05/16 01:41:41;;;;;;;3.53;2.97;;;;;20.70;100576.00;;;;2074984;28;20210;-50
2023/05/16 01:42:43;;;;;;;3.38;3.08;;;;;20.70;100573.00;;;;2067791;28;20221;-50
2023/05/16 01:43:47;;;;;;;4.63;3.60;;;;;20.80;100597.00;;;;2075314;28;20217;-51
2023/05/16 01:45:04;;;;;;;4.78;3.45;;;;;20.80;100583.00;;;;2080247;28;20288;-50
2023/05/16 01:46:15;;;;;;;4.45;3.45;;;;;20.80;100578.00;;;;2073030;28;20213;-49
2023/05/16 01:47:16;;;;;;;3.33;3.03;;;;;20.70;100576.00;;;;2056829;28;21756;-50
2023/05/16 01:48:17;;;;;;;3.70;3.38;;;;;20.80;100573.00;;;;2069293;28;20218;-49
2023/05/16 01:49:30;;;;;;;3.85;3.55;;;;;20.80;100591.00;;;;2063031;28;20225;-50
2023/05/16 01:50:31;;;;;;;3.97;3.25;;;;;20.80;100596.00;;;;2063868;28;20207;-50
2023/05/16 01:51:34;;;;;;;3.90;3.50;;;;;20.80;100591.00;;;;2069095;28;20221;-50
2023/05/16 01:52:41;;;;;;;3.30;3.00;;;;;20.70;100589.00;;;;2058740;28;20219;-50
2023/05/16 01:53:44;;;;;;;4.00;2.80;;;;;20.70;100597.00;;;;2066494;28;20211;-51
2023/05/16 01:54:44;;;;;;;3.05;2.70;;;;;20.70;100600.00;;;;2079387;28;20569;-49
2023/05/16 01:55:46;;;;;;;3.00;2.70;;;;;20.70;100606.00;;;;2081139;28;20209;-50
2023/05/16 01:56:51;;;;;;;3.42;2.85;;;;;20.70;100598.00;;;;2076283;28;20668;-49
2023/05/16 01:57:52;;;;;;;3.97;3.28;;;;;20.70;100601.00;;;;2060485;28;20218;-50
2023/05/16 01:58:52;;;;;;;3.40;2.93;;;;;20.70;100599.00;;;;2064394;28;21308;-50
2023/05/16 01:59:52;;;;;;;3.70;2.50;;;;;20.70;100597.00;;;;2064253;28;20282;-50
2023/05/16 02:00:53;;;;;;;3.83;3.20;;;;;20.70;100608.00;;;;2055292;28;20219;-50
2023/05/16 02:01:54;;;;;;;3.10;2.70;;;;;20.80;100605.00;;;;2058490;28;20229;-51
2023/05/16 02:02:54;;;;;;;3.70;2.83;;;;;20.70;100601.00;;;;2078195;28;20225;-50
2023/05/16 02:03:54;;;;;;;3.30;3.00;;;;;20.70;100614.00;;;;2077902;28;20514;-49
2023/05/16 02:04:55;;;;;;;3.03;2.53;;;;;20.70;100611.00;;;;2072856;28;20237;-49
2023/05/16 02:05:56;;;;;;;4.10;2.77;;;;;20.70;100602.00;;;;2075439;28;20213;-50
2023/05/16 02:06:56;;;;;;;4.60;2.90;;;;;20.70;100608.00;;;;2062072;28;20219;-52
2023/05/16 02:07:57;;;;;;;3.80;2.77;;;;;20.70;100614.00;;;;2084263;28;20320;-51
2023/05/16 02:08:57;;;;;;;3.60;2.97;;;;;20.70;100607.00;;;;2076277;28;20217;-50
2023/05/16 02:09:58;;;;;;;3.50;2.47;;;;;20.70;100614.00;;;;2076441;28;20444;-50
2023/05/16 02:10:58;;;;;;;3.20;2.90;;;;;20.70;100612.00;;;;2071077;28;20218;-50
2023/05/16 02:11:59;;;;;;;3.40;2.40;;;;;20.70;100606.00;;;;2064532;28;20958;-50
2023/05/16 02:12:59;;;;;;;3.60;2.67;;;;;20.70;100616.00;;;;2083460;28;20205;-50
2023/05/16 02:14:00;;;;;;;3.20;2.50;;;;;20.70;100612.00;;;;2083950;28;20716;-50
2023/05/16 02:15:00;;;;;;;3.63;2.60;;;;;20.70;100614.00;;;;2079164;28;20227;-50
2023/05/16 02:16:01;;;;;;;3.30;2.40;;;;;20.70;100615.00;;;;2082174;28;20217;-50
2023/05/16 02:17:01;;;;;;;3.77;2.87;;;;;20.70;100613.00;;;;2072451;28;20209;-50
2023/05/16 02:18:01;;;;;;;5.00;2.80;;;;;20.70;100616.00;;;;2088669;28;20273;-49
2023/05/16 02:19:02;;;;;;;4.23;2.70;;;;;20.70;100618.00;;;;2084155;28;20220;-50
2023/05/16 02:20:05;;;;;;;3.20;2.80;;;;;20.70;100621.00;;;;2078263;28;21206;-50
2023/05/16 02:21:06;;;;;;;3.55;2.45;;;;;20.70;100612.00;;;;2082213;28;20236;-50
2023/05/16 02:22:06;;;;;;;2.50;2.20;;;;;20.70;100614.00;;;;2071677;28;20220;-50
2023/05/16 02:23:06;;;;;;;3.67;2.43;;;;;20.70;100615.00;;;;2089439;28;20200;-51
2023/05/16 02:24:07;;;;;;;2.30;2.10;;;;;20.70;100610.00;;;;2088907;28;20245;-50
2023/05/16 02:25:07;;;;;;;3.57;2.73;;;;;20.70;100615.00;;;;2078276;28;20747;-50
2023/05/16 02:26:09;;;;;;;2.38;2.17;;;;;20.70;100614.00;;;;2083348;28;20225;-50
2023/05/16 02:27:09;;;;;;;3.43;2.80;;;;;20.70;100622.00;;;;2072577;28;20304;-50
2023/05/16 02:28:10;;;;;;;4.00;2.80;;;;;20.70;100620.00;;;;2088305;28;20235;-50
2023/05/16 02:29:10;;;;;;;3.27;2.40;;;;;20.70;100634.00;;;;2088554;28;20608;-50
2023/05/16 02:30:11;;;;;;;2.73;2.53;;;;;20.70;100616.00;;;;2077238;28;20581;-49
2023/05/16 02:31:11;;;;;;;2.70;2.30;;;;;20.70;100619.00;;;;2082351;28;20299;-50
2023/05/16 02:32:11;;;;;;;2.97;2.50;;;;;20.70;100623.00;;;;2069947;28;20230;-50
2023/05/16 02:33:12;;;;;;;3.33;2.23;;;;;20.70;100618.00;;;;2087521;28;20881;-50
2023/05/16 02:34:12;;;;;;;2.53;2.33;;;;;20.70;100619.00;;;;2083856;28;20220;-50
2023/05/16 02:35:12;;;;;;;2.97;2.40;;;;;20.70;100623.00;;;;2083532;28;20286;-49
2023/05/16 02:36:13;;;;;;;4.60;2.40;;;;;20.70;100613.00;;;;2083076;28;20592;-49
2023/05/16 02:37:13;;;;;;;2.87;2.10;;;;;20.70;100629.00;;;;2068030;28;20892;-49
2023/05/16 02:38:16;;;;;;;2.37;2.00;;;;;20.70;100628.00;;;;2085418;28;20678;-50
2023/05/16 02:39:16;;;;;;;3.45;2.35;;;;;20.70;100620.00;;;;2079291;28;20220;-50
2023/05/16 02:40:17;;;;;;;4.03;2.63;;;;;20.70;100619.00;;;;2070042;28;20697;-50
2023/05/16 02:41:17;;;;;;;2.80;2.40;;;;;20.70;100619.00;;;;2071606;28;20670;-49
2023/05/16 02:42:18;;;;;;;2.77;2.40;;;;;20.70;100618.00;;;;2073700;28;20653;-50
2023/05/16 02:43:18;;;;;;;2.73;2.30;;;;;20.70;100640.00;;;;2086234;28;20278;-50
2023/05/16 02:44:18;;;;;;;2.77;2.13;;;;;20.70;100630.00;;;;2076270;28;20714;-49
2023/05/16 02:45:19;;;;;;;4.93;2.60;;;;;20.70;100631.00;;;;2068311;28;20698;-50
2023/05/16 02:46:31;;;;;;;2.73;2.10;;;;;20.70;100636.00;;;;2072429;28;20749;-50
2023/05/16 02:47:32;;;;;;;3.70;2.45;;;;;20.60;100641.00;;;;2076873;28;20700;-50
2023/05/16 02:48:32;;;;;;;2.47;1.80;;;;;20.70;100629.00;;;;2088118;28;20216;-51
2023/05/16 02:49:32;;;;;;;2.40;2.20;;;;;20.70;100642.00;;;;2078312;28;20218;-50
2023/05/16 02:50:33;;;;;;;2.47;2.20;;;;;20.70;100636.00;;;;2075276;28;20217;-49
2023/05/16 02:51:33;;;;;;;2.77;2.23;;;;;20.70;100641.00;;;;2075482;28;20221;-50
2023/05/16 02:52:33;;;;;;;2.30;2.10;;;;;20.70;100629.00;;;;2076235;28;20295;-50
2023/05/16 02:53:34;;;;;;;3.00;2.03;;;;;20.70;100634.00;;;;2084787;28;20248;-50
2023/05/16 02:54:34;;;;;;;3.60;2.27;;;;;20.70;100647.00;;;;2081414;28;20255;-50
2023/05/16 02:55:35;;;;;;;2.70;2.27;;;;;20.70;100640.00;;;;2076868;28;20209;-50
2023/05/16 02:56:36;;;;;;;4.27;2.20;;;;;20.60;100643.00;;;;2078318;28;20214;-50
2023/05/16 02:57:36;;;;;;;3.07;1.90;;;;;20.70;100653.00;;;;2065812;28;20263;-50
2023/05/16 02:58:36;;;;;;;2.97;2.00;;;;;20.60;100645.00;;;;2075579;28;20992;-50
2023/05/16 02:59:37;;;;;;;3.40;2.23;;;;;20.60;100645.00;;;;2073049;28;20753;-51
2023/05/16 03:00:37;;;;;;;3.27;2.13;;;;;20.70;100642.00;;;;2080270;28;20201;-50
2023/05/16 03:01:37;;;;;;;2.90;2.50;;;;;20.60;100655.00;;;;2078851;28;20220;-50
2023/05/16 03:02:38;;;;;;;3.40;2.53;;;;;20.60;100654.00;;;;2065227;28;20214;-50
2023/05/16 03:03:38;;;;;;;3.33;2.00;;;;;20.60;100648.00;;;;2069940;28;20206;-50
2023/05/16 03:04:38;;;;;;;3.03;1.97;;;;;20.70;100646.00;;;;2070420;28;20214;-50
2023/05/16 03:05:39;;;;;;;3.77;2.37;;;;;20.70;100646.00;;;;2077968;28;20217;-50
2023/05/16 03:06:39;;;;;;;2.07;1.60;;;;;20.70;100657.00;;;;2085060;28;20282;-50
2023/05/16 03:07:39;;;;;;;5.13;2.23;;;;;20.60;100655.00;;;;2072909;28;20940;-50
2023/05/16 03:08:40;;;;;;;3.17;2.03;;;;;20.60;100661.00;;;;2083600;28;20216;-50
2023/05/16 03:09:40;;;;;;;2.73;2.00;;;;;20.60;100663.00;;;;2079981;28;20340;-49
2023/05/16 03:10:41;;;;;;;2.90;2.13;;;;;20.70;100668.00;;;;2077695;28;20252;-49
2023/05/16 03:11:41;;;;;;;3.70;2.10;;;;;20.70;100655.00;;;;2084991;28;20980;-49
2023/05/16 03:12:41;;;;;;;3.87;2.20;;;;;20.60;100662.00;;;;2074692;28;20224;-50
2023/05/16 03:13:42;;;;;;;3.93;2.60;;;;;20.60;100671.00;;;;2092306;28;20225;-49
2023/05/16 03:14:42;;;;;;;2.20;1.80;;;;;20.60;100671.00;;;;2083595;28;20221;-50
2023/05/16 03:15:42;;;;;;;2.33;1.60;;;;;20.60;100665.00;;;;2079027;28;20255;-50
2023/05/16 03:16:43;;;;;;;3.70;2.03;;;;;20.60;100664.00;;;;2084066;28;20241;-49
2023/05/16 03:17:43;;;;;;;2.33;1.90;;;;;20.60;100670.00;;;;2069963;28;20217;-50
2023/05/16 03:18:44;;;;;;;3.40;2.27;;;;;20.60;100674.00;;;;2090871;28;20240;-50
2023/05/16 03:19:44;;;;;;;3.37;1.90;;;;;20.70;100673.00;;;;2079749;28;20295;-50
2023/05/16 03:20:44;;;;;;;2.67;1.97;;;;;20.60;100680.00;;;;2076249;28;20287;-50
2023/05/16 03:21:45;;;;;;;2.50;1.90;;;;;20.60;100679.00;;;;2074590;28;20218;-50
2023/05/16 03:22:45;;;;;;;4.63;2.10;;;;;20.60;100677.00;;;;2075503;28;20244;-51
2023/05/16 03:23:45;;;;;;;5.50;2.00;;;;;20.60;100671.00;;;;2089856;28;20208;-50
2023/05/16 03:24:46;;;;;;;4.13;2.30;;;;;20.60;100679.00;;;;2077070;28;20241;-50
2023/05/16 03:25:46;;;;;;;4.10;2.17;;;;;20.60;100684.00;;;;2074015;28;20225;-50
2023/05/16 03:26:47;;;;;;;3.00;2.20;;;;;20.60;100671.00;;;;2071245;28;20217;-50
2023/05/16 03:27:47;;;;;;;3.60;2.07;;;;;20.70;100681.00;;;;2068812;28;20216;-50
2023/05/16 03:28:48;;;;;;;3.33;1.90;;;;;20.60;100684.00;;;;2077022;28;20213;-51
2023/05/16 03:29:48;;;;;;;4.40;2.00;;;;;20.60;100680.00;;;;2070784;28;20292;-50
2023/05/16 03:30:48;;;;;;;2.17;1.67;;;;;20.60;100688.00;;;;2076409;28;20249;-50
2023/05/16 03:31:49;;;;;;;3.20;2.00;;;;;20.60;100678.00;;;;2073349;28;21713;-50
2023/05/16 03:32:49;;;;;;;2.60;1.93;;;;;20.60;100681.00;;;;2081724;28;20228;-51
2023/05/16 03:33:50;;;;;;;3.10;1.83;;;;;20.60;100685.00;;;;2083349;28;20224;-50
2023/05/16 03:34:50;;;;;;;4.13;1.70;;;;;20.60;100683.00;;;;2076233;28;20256;-50
2023/05/16 03:35:51;;;;;;;3.33;1.73;;;;;20.60;100686.00;;;;2074861;28;20221;-50
2023/05/16 03:36:51;;;;;;;3.83;2.13;;;;;20.60;100681.00;;;;2072808;28;20218;-51
2023/05/16 03:37:51;;;;;;;3.90;1.70;;;;;20.60;100687.00;;;;2069228;28;20213;-50
2023/05/16 03:38:52;;;;;;;3.83;1.83;;;;;20.60;100686.00;;;;2080429;28;20217;-51
2023/05/16 03:39:52;;;;;;;2.70;1.90;;;;;20.60;100687.00;;;;2072254;28;20225;-50
2023/05/16 03:40:52;;;;;;;3.83;1.90;;;;;20.60;100687.00;;;;2076867;28;20270;-51
2023/05/16 03:41:56;;;;;;;4.30;1.90;;;;;20.60;100685.00;;;;2076372;28;20223;-51
2023/05/16 03:42:56;;;;;;;3.38;1.90;;;;;20.60;100682.00;;;;2078148;28;20264;-51
2023/05/16 03:43:56;;;;;;;2.80;1.60;;;;;20.60;100695.00;;;;2072343;28;20275;-50
2023/05/16 03:44:57;;;;;;;2.63;1.60;;;;;20.60;100695.00;;;;2081119;28;20623;-51
2023/05/16 03:45:57;;;;;;;4.30;2.27;;;;;20.60;100698.00;;;;2080134;28;20635;-50
2023/05/16 03:46:57;;;;;;;2.73;1.60;;;;;20.60;100702.00;;;;2069855;28;20217;-50
2023/05/16 03:47:58;;;;;;;3.70;1.73;;;;;20.60;100706.00;;;;2067010;28;20226;-50
2023/05/16 03:48:58;;;;;;;3.07;1.70;;;;;20.60;100712.00;;;;2080617;28;20275;-50
2023/05/16 03:49:58;;;;;;;5.03;1.93;;;;;20.60;100709.00;;;;2080839;28;20685;-51
2023/05/16 03:50:59;;;;;;;2.60;1.50;;;;;20.60;100706.00;;;;2079641;28;20793;-50
2023/05/16 03:51:59;;;;;;;4.10;1.80;;;;;20.60;100703.00;;;;2062798;28;20848;-50
2023/05/16 03:52:59;;;;;;;2.47;1.63;;;;;20.60;100707.00;;;;2080951;28;20325;-50
2023/05/16 03:54:00;;;;;;;3.40;1.70;;;;;20.60;100704.00;;;;2087253;28;20232;-53
2023/05/16 03:55:01;;;;;;;2.70;1.70;;;;;20.60;100712.00;;;;2080451;28;20212;-52
2023/05/16 03:56:02;;;;;;;2.40;1.60;;;;;20.60;100711.00;;;;2077086;28;20244;-51
2023/05/16 03:57:03;;;;;;;5.63;1.77;;;;;20.60;100711.00;;;;2071527;28;20228;-50
2023/05/16 03:58:03;;;;;;;2.23;1.60;;;;;20.60;100712.00;;;;2068928;28;20785;-50
2023/05/16 03:59:04;;;;;;;3.27;1.93;;;;;20.60;100710.00;;;;2072440;28;20230;-50
2023/05/16 04:00:08;;;;;;;5.00;1.97;;;;;20.60;100713.00;;;;2075452;28;20248;-50
2023/05/16 04:01:08;;;;;;;3.65;1.60;;;;;20.60;100713.00;;;;2081780;28;20265;-50
2023/05/16 04:02:08;;;;;;;3.67;1.87;;;;;20.60;100710.00;;;;2071028;28;20259;-50
2023/05/16 04:03:08;;;;;;;2.60;1.57;;;;;20.60;100707.00;;;;2079657;28;20310;-51
2023/05/16 04:04:09;;;;;;;3.93;1.80;;;;;20.60;100717.00;;;;2074928;28;20222;-51
2023/05/16 04:05:10;;;;;;;4.90;1.73;;;;;20.60;100724.00;;;;2073335;28;20224;-51
2023/05/16 04:06:10;;;;;;;3.27;1.47;;;;;20.60;100716.00;;;;2076560;28;20241;-50
2023/05/16 04:07:11;;;;;;;2.73;1.50;;;;;20.60;100724.00;;;;2063043;28;20345;-51
2023/05/16 04:08:11;;;;;;;3.10;1.60;;;;;20.60;100717.00;;;;2088495;28;20247;-50
2023/05/16 04:09:12;;;;;;;3.90;1.80;;;;;20.60;100712.00;;;;2082436;28;20205;-50
2023/05/16 04:10:12;;;;;;;2.85;1.23;;;;;20.60;100725.00;;;;2070904;28;20221;-50
2023/05/16 04:11:13;;;;;;;3.93;1.70;;;;;20.60;100729.00;;;;2076250;28;20213;-50
2023/05/16 04:12:13;;;;;;;3.30;1.57;;;;;20.60;100722.00;;;;2064596;28;21082;-50
2023/05/16 04:13:14;;;;;;;3.00;1.30;;;;;20.60;100730.00;;;;2069417;28;20222;-50
2023/05/16 04:14:14;;;;;;;3.57;1.47;;;;;20.60;100737.00;;;;2070037;28;20272;-50
2023/05/16 04:15:14;;;;;;;2.43;1.53;;;;;20.60;100737.00;;;;2076668;28;20218;-50
2023/05/16 04:16:15;;;;;;;3.53;1.80;;;;;20.60;100723.00;;;;2076652;28;20210;-51
2023/05/16 04:17:15;;;;;;;3.40;1.63;;;;;20.60;100733.00;;;;2068641;28;20228;-50
2023/05/16 04:18:15;;;;;;;4.60;1.57;;;;;20.60;100732.00;;;;2090365;28;20221;-51
2023/05/16 04:19:16;;;;;;;4.93;1.90;;;;;20.60;100729.00;;;;2081256;28;20348;-51
2023/05/16 04:20:16;;;;;;;6.27;2.00;;;;;20.60;100733.00;;;;2080192;28;20222;-50
2023/05/16 04:21:16;;;;;;;3.77;1.47;;;;;20.50;100734.00;;;;2071359;28;20214;-50
2023/05/16 04:22:17;;;;;;;4.23;1.37;;;;;20.60;100737.00;;;;2070416;28;20303;-50
2023/05/16 04:23:17;;;;;;;3.03;1.80;;;;;20.60;100739.00;;;;2079714;28;20580;-50
2023/05/16 04:24:17;;;;;;;2.80;1.33;;;;;20.60;100737.00;;;;2077013;28;20773;-50
2023/05/16 04:25:18;;;;;;;3.20;1.47;;;;;20.60;100740.00;;;;2074724;28;20221;-51
2023/05/16 04:26:20;;;;;;;3.63;1.50;;;;;20.60;100740.00;;;;2081161;28;20220;-49
2023/05/16 04:27:21;;;;;;;3.78;1.60;;;;;20.60;100675.00;;;;2074820;28;20237;-50
2023/05/16 04:28:21;;;;;;;3.83;1.80;;;;;20.60;100742.00;;;;2073004;28;20213;-50
2023/05/16 04:29:22;;;;;;;4.50;1.60;;;;;20.60;100742.00;;;;2070074;28;20222;-50
2023/05/16 04:30:22;;;;;;;4.20;1.77;;;;;20.60;100746.00;;;;2078671;28;20222;-51
2023/05/16 04:31:24;;;;;;;2.37;1.40;;;;;20.60;100743.00;;;;2075175;28;20216;-50
2023/05/16 04:32:24;;;;;;;4.10;1.67;;;;;20.60;100746.00;;;;2076185;28;20360;-51
2023/05/16 04:33:25;;;;;;;4.10;1.50;;;;;20.60;100748.00;;;;2085189;28;20697;-51
2023/05/16 04:34:26;;;;;;;4.87;2.10;;;;;20.60;100749.00;;;;2089827;28;20216;-50
2023/05/16 04:35:27;;;;;;;4.55;1.63;;;;;20.60;100755.00;;;;2077320;28;20267;-51
2023/05/16 04:36:28;;;;;;;3.27;1.50;;;;;20.50;100749.00;;;;2075638;28;20267;-51
2023/05/16 04:37:29;;;;;;;4.47;1.77;;;;;20.60;100756.00;;;;2063305;28;20619;-50
2023/05/16 04:38:30;;;;;;;3.17;1.40;;;;;20.50;100669.00;;;;2074170;28;20225;-50
2023/05/16 04:39:31;;;;;;;4.30;1.70;;;;;20.50;100756.00;;;;2077568;28;20592;-51
2023/05/16 04:40:31;;;;;;;3.35;2.00;;;;;20.60;100762.00;;;;2082834;28;20216;-50
2023/05/16 04:41:32;;;;;;;3.20;1.40;;;;;20.60;100758.00;;;;2074614;28;20213;-49
2023/05/16 04:42:33;;;;;;;4.20;1.83;;;;;20.60;100760.00;;;;2078025;28;20293;-50
2023/05/16 04:43:34;;;;;;;3.40;1.83;;;;;20.50;100770.00;;;;2083954;28;20209;-51
2023/05/16 04:44:35;;;;;;;3.63;1.65;;;;;20.60;100774.00;;;;2086111;28;20476;-51
2023/05/16 04:45:35;;;;;;;3.90;1.70;;;;;20.60;100765.00;;;;2082883;28;20197;-51
2023/05/16 04:46:36;;;;;;;3.53;1.73;;;;;20.60;100770.00;;;;2080527;28;20237;-51
2023/05/16 04:47:36;;;;;;;4.60;1.60;;;;;20.60;100781.00;;;;2075054;28;20205;-48
2023/05/16 04:48:37;;;;;;;4.20;2.00;;;;;20.60;100782.00;;;;2075132;28;20209;-51
2023/05/16 04:49:37;;;;;;;3.13;1.70;;;;;20.60;100770.00;;;;2076625;28;20223;-51
2023/05/16 04:50:37;;;;;;;4.47;1.63;;;;;20.60;100772.00;;;;2076203;28;20210;-51
2023/05/16 04:51:38;;;;;;;4.40;1.80;;;;;20.60;100775.00;;;;2072948;28;20230;-51
2023/05/16 04:52:38;;;;;;;4.37;1.60;;;;;20.60;100801.00;;;;2066628;28;20892;-48
2023/05/16 04:53:38;;;;;;;3.03;1.40;;;;;20.60;100780.00;;;;2083331;28;20978;-49
2023/05/16 04:54:39;;;;;;;5.70;1.60;;;;;20.60;100774.00;;;;2076099;28;20213;-50
2023/05/16 04:55:39;;;;;;;3.73;1.87;;;;;20.60;100784.00;;;;2075743;28;20213;-51
2023/05/16 04:56:39;;;;;;;4.07;1.87;;;;;20.60;100785.00;;;;2075823;28;20217;-51
2023/05/16 04:57:40;;;;;;;3.63;1.57;;;;;20.60;100782.00;;;;2066507;28;20209;-51
2023/05/16 04:58:40;;;;;;;4.80;1.67;;;;;20.60;100791.00;;;;2077255;28;20209;-50
2023/05/16 04:59:40;;;;;;;3.90;1.40;;;;;20.60;100776.00;;;;2077966;28;20296;-50
2023/05/16 05:00:41;;;;;;;2.20;1.23;;;;;20.60;100792.00;;;;2076834;28;20197;-49
2023/05/16 05:01:41;;;;;;;3.30;1.53;;;;;20.60;100790.00;;;;2074982;28;20214;-50
2023/05/16 05:02:42;;;;;;;2.70;1.50;;;;;20.60;100797.00;;;;2065123;28;20237;-51
2023/05/16 05:03:43;;;;;;;4.57;1.20;;;;;20.60;100794.00;;;;2091183;28;20223;-50
2023/05/16 05:04:43;;;;;;;3.70;1.80;;;;;20.60;100793.00;;;;2078172;28;20471;-48